createdAt,value
2022-08-05T00:00:17.241Z,22.00
2022-08-05T00:02:51.301Z,21.80
2022-08-05T00:06:03.227Z,21.60
2022-08-05T00:08:32.639Z,21.60
2022-08-05T00:11:00.339Z,21.70
2022-08-05T00:13:38.954Z,21.60
2022-08-05T00:16:08.717Z,21.70
2022-08-05T00:18:37.887Z,21.70
2022-08-05T00:21:06.908Z,21.70
2022-08-05T00:23:45.658Z,21.90
2022-08-05T00:26:16.637Z,21.60
2022-08-05T00:28:45.725Z,21.50
2022-08-05T00:31:13.883Z,21.40
2022-08-05T00:34:53.949Z,21.30
2022-08-05T00:37:12.405Z,21.40
2022-08-05T00:39:17.492Z,21.40
2022-08-05T00:41:55.615Z,21.20
2022-08-05T00:44:30.995Z,21.40
2022-08-05T00:47:01.925Z,21.40
2022-08-05T00:49:44.409Z,21.40
2022-08-05T00:52:28.164Z,21.40
2022-08-05T00:54:56.854Z,21.40
2022-08-05T00:57:31.704Z,21.30
2022-08-05T01:00:11.196Z,21.20
2022-08-05T01:02:41.182Z,21.20
2022-08-05T01:05:10.159Z,21.30
2022-08-05T01:07:38.234Z,21.20
2022-08-05T01:10:29.905Z,21.20
2022-08-05T01:13:05.346Z,21.20
2022-08-05T01:15:47.792Z,21.10
2022-08-05T01:18:17.388Z,21.20
2022-08-05T01:20:51.114Z,21.20
2022-08-05T01:23:36.138Z,21.30
2022-08-05T01:26:20.790Z,21.60
2022-08-05T01:28:58.355Z,21.40
2022-08-05T01:31:44.633Z,21.40
2022-08-05T01:34:14.942Z,21.30
2022-08-05T01:36:48.060Z,21.30
2022-08-05T01:39:45.827Z,21.30
2022-08-05T01:42:05.100Z,21.50
2022-08-05T01:44:35.458Z,21.70
2022-08-05T01:47:05.174Z,21.40
2022-08-05T01:50:00.564Z,21.40
2022-08-05T01:52:21.028Z,21.50
2022-08-05T01:54:52.738Z,21.30
2022-08-05T01:58:29.129Z,21.30
2022-08-05T02:00:14.577Z,21.50
2022-08-05T02:02:51.195Z,21.50
2022-08-05T02:05:23.706Z,21.40
2022-08-05T02:08:00.338Z,21.60
2022-08-05T02:10:31.952Z,21.70
2022-08-05T02:13:04.821Z,21.60
2022-08-05T02:15:47.730Z,21.60
2022-08-05T02:18:32.173Z,21.30
2022-08-05T02:21:04.367Z,21.20
2022-08-05T02:23:35.715Z,21.20
2022-08-05T02:26:04.467Z,21.10
2022-08-05T02:28:38.154Z,21.10
2022-08-05T02:31:14.482Z,21.20
2022-08-05T02:33:44.930Z,21.20
2022-08-05T02:36:17.904Z,21.20
2022-08-05T02:38:53.535Z,21.20
2022-08-05T02:41:22.815Z,21.30
2022-08-05T02:44:06.495Z,21.20
2022-08-05T02:46:43.895Z,21.20
2022-08-05T02:49:26.886Z,21.10
2022-08-05T02:52:03.459Z,21.10
2022-08-05T02:54:36.109Z,21.10
2022-08-05T02:57:09.784Z,21.10
2022-08-05T02:59:55.048Z,21.00
2022-08-05T03:02:27.670Z,20.80
2022-08-05T03:04:55.756Z,20.70
2022-08-05T03:08:01.898Z,20.60
2022-08-05T03:10:13.370Z,20.50
2022-08-05T03:12:41.368Z,20.60
2022-08-05T03:15:12.264Z,20.60
2022-08-05T03:17:44.814Z,20.60
2022-08-05T03:20:13.580Z,20.70
2022-08-05T03:22:44.266Z,20.50
2022-08-05T03:25:32.741Z,20.60
2022-08-05T03:28:02.763Z,20.50
2022-08-05T03:30:34.047Z,20.60
2022-08-05T03:33:04.039Z,20.50
2022-08-05T03:35:41.215Z,20.50
2022-08-05T03:38:11.733Z,20.50
2022-08-05T03:40:41.416Z,20.40
2022-08-05T03:43:58.591Z,20.40
2022-08-05T03:46:01.456Z,20.40
2022-08-05T03:48:30.767Z,20.40
2022-08-05T03:52:38.147Z,20.50
2022-08-05T03:55:51.764Z,20.30
2022-08-05T03:56:47.173Z,20.40
2022-08-05T03:59:20.423Z,20.60
2022-08-05T04:01:50.240Z,20.50
2022-08-05T04:04:21.115Z,20.50
2022-08-05T04:06:51.172Z,20.20
2022-08-05T04:09:20.340Z,20.10
2022-08-05T04:11:54.072Z,20.00
2022-08-05T04:14:30.008Z,20.00
2022-08-05T04:16:59.609Z,20.10
2022-08-05T04:19:28.978Z,20.00
2022-08-05T04:22:08.319Z,20.10
2022-08-05T04:24:39.033Z,20.20
2022-08-05T04:27:12.945Z,20.10
2022-08-05T04:29:41.296Z,20.10
2022-08-05T04:32:09.438Z,19.90
2022-08-05T04:34:42.730Z,19.80
2022-08-05T04:37:11.181Z,19.80
2022-08-05T04:39:39.996Z,20.00
2022-08-05T04:42:09.148Z,19.80
2022-08-05T04:44:37.061Z,19.80
2022-08-05T04:47:09.374Z,19.70
2022-08-05T04:50:02.499Z,20.00
2022-08-05T04:52:28.078Z,20.10
2022-08-05T04:54:57.228Z,20.30
2022-08-05T04:57:29.283Z,20.30
2022-08-05T05:00:05.263Z,20.40
2022-08-05T05:02:36.230Z,20.60
2022-08-05T05:05:16.939Z,20.40
2022-08-05T05:07:56.499Z,20.30
2022-08-05T05:10:29.669Z,20.20
2022-08-05T05:12:57.802Z,20.10
2022-08-05T05:15:56.593Z,20.10
2022-08-05T05:18:14.250Z,20.20
2022-08-05T05:20:43.865Z,20.40
2022-08-05T05:23:19.504Z,20.60
2022-08-05T05:25:48.133Z,20.70
2022-08-05T05:28:15.949Z,20.90
2022-08-05T05:30:43.872Z,21.10
2022-08-05T05:33:17.925Z,21.20
2022-08-05T05:35:52.738Z,21.40
2022-08-05T05:38:26.965Z,21.40
2022-08-05T05:40:56.020Z,21.60
2022-08-05T05:43:54.793Z,21.80
2022-08-05T05:46:15.819Z,21.90
2022-08-05T05:48:44.587Z,21.90
2022-08-05T05:51:19.588Z,22.00
2022-08-05T05:53:58.196Z,22.20
2022-08-05T05:56:33.325Z,22.20
2022-08-05T05:59:05.117Z,22.40
2022-08-05T06:01:37.349Z,22.50
2022-08-05T06:04:07.377Z,22.60
2022-08-05T06:06:36.838Z,22.70
2022-08-05T06:09:16.753Z,22.80
2022-08-05T06:12:01.899Z,22.90
2022-08-05T06:14:30.861Z,23.00
2022-08-05T06:16:58.844Z,23.10
2022-08-05T06:19:34.531Z,23.20
2022-08-05T06:22:06.422Z,23.30
2022-08-05T06:24:34.679Z,23.40
2022-08-05T06:27:03.909Z,23.50
2022-08-05T06:29:46.358Z,23.50
2022-08-05T06:32:24.836Z,23.60
2022-08-05T06:34:56.564Z,23.70
2022-08-05T06:37:56.389Z,23.80
2022-08-05T06:40:18.512Z,23.90
2022-08-05T06:42:52.288Z,24.00
2022-08-05T06:45:43.981Z,24.20
2022-08-05T06:48:36.023Z,24.30
2022-08-05T06:50:57.137Z,24.40
2022-08-05T06:53:27.707Z,24.50
2022-08-05T06:55:55.996Z,24.60
2022-08-05T06:58:30.230Z,24.70
2022-08-05T07:01:05.255Z,24.80
2022-08-05T07:03:33.450Z,24.90
2022-08-05T07:06:06.186Z,25.00
2022-08-05T07:08:47.937Z,25.20
2022-08-05T07:11:25.281Z,25.40
2022-08-05T07:14:20.553Z,25.50
2022-08-05T07:18:00.541Z,25.60
2022-08-05T07:22:36.584Z,25.70
2022-08-05T07:25:21.956Z,25.80
2022-08-05T07:27:58.346Z,25.80
2022-08-05T07:30:32.058Z,25.90
2022-08-05T07:33:01.346Z,26.10
2022-08-05T07:36:04.265Z,26.30
2022-08-05T07:38:32.001Z,26.70
2022-08-05T07:42:09.498Z,27.30
2022-08-05T07:43:52.521Z,27.70
2022-08-05T07:46:25.517Z,27.80
2022-08-05T07:49:02.985Z,28.10
2022-08-05T07:51:40.219Z,28.00
2022-08-05T07:54:09.950Z,27.80
2022-08-05T07:57:13.932Z,27.70
2022-08-05T07:59:38.955Z,27.60
2022-08-05T08:02:15.325Z,27.40
2022-08-05T08:04:44.878Z,27.20
2022-08-05T08:07:13.214Z,27.00
2022-08-05T08:09:41.107Z,27.20
2022-08-05T08:12:27.346Z,27.20
2022-08-05T08:15:02.439Z,27.10
2022-08-05T08:17:31.460Z,27.00
2022-08-05T08:20:20.995Z,27.10
2022-08-05T08:22:52.229Z,27.30
2022-08-05T08:25:26.460Z,28.00
2022-08-05T08:27:56.372Z,28.40
2022-08-05T08:30:32.222Z,28.70
2022-08-05T08:33:04.364Z,29.20
2022-08-05T08:35:34.891Z,29.30
2022-08-05T08:38:11.704Z,29.10
2022-08-05T08:40:51.533Z,29.30
2022-08-05T08:45:19.288Z,29.40
2022-08-05T08:46:10.069Z,29.60
2022-08-05T08:49:07.776Z,29.70
2022-08-05T08:52:04.127Z,30.10
2022-08-05T08:54:21.395Z,30.00
2022-08-05T08:56:56.599Z,29.90
2022-08-05T08:59:27.499Z,29.70
2022-08-05T09:02:01.414Z,29.40
2022-08-05T09:04:30.437Z,29.30
2022-08-05T09:06:58.940Z,29.70
2022-08-05T09:09:32.465Z,29.80
2022-08-05T09:12:13.337Z,30.10
2022-08-05T09:14:56.990Z,30.00
2022-08-05T09:17:42.230Z,30.20
2022-08-05T09:20:20.838Z,30.40
2022-08-05T09:23:07.913Z,30.40
2022-08-05T09:26:01.102Z,30.30
2022-08-05T09:28:32.246Z,30.50
2022-08-05T09:31:43.709Z,30.60
2022-08-05T09:33:54.656Z,30.80
2022-08-05T09:36:27.628Z,30.80
2022-08-05T09:39:02.413Z,30.80
2022-08-05T09:41:33.232Z,30.70
2022-08-05T09:44:06.951Z,30.40
2022-08-05T09:46:36.124Z,30.50
2022-08-05T09:49:19.210Z,30.80
2022-08-05T09:51:49.977Z,30.70
2022-08-05T09:54:29.008Z,30.60
2022-08-05T09:57:01.229Z,31.00
2022-08-05T09:59:29.659Z,30.90
2022-08-05T10:02:04.458Z,30.50
2022-08-05T10:04:36.311Z,30.70
2022-08-05T10:07:20.993Z,31.30
2022-08-05T10:10:14.140Z,30.80
2022-08-05T10:12:49.658Z,30.70
2022-08-05T10:15:23.267Z,30.60
2022-08-05T10:18:07.603Z,30.50
2022-08-05T10:20:36.828Z,30.60
2022-08-05T10:23:05.454Z,30.20
2022-08-05T10:25:50.139Z,30.90
2022-08-05T10:28:19.347Z,31.00
2022-08-05T10:32:50.847Z,31.30
2022-08-05T10:33:54.218Z,31.50
2022-08-05T10:36:23.616Z,31.60
2022-08-05T10:38:57.207Z,31.60
2022-08-05T10:41:46.721Z,31.60
2022-08-05T10:44:18.122Z,31.50
2022-08-05T10:46:51.051Z,31.50
2022-08-05T10:49:26.993Z,31.50
2022-08-05T10:52:00.180Z,31.70
2022-08-05T10:54:56.519Z,31.50
2022-08-05T10:57:30.982Z,31.50
2022-08-05T11:00:19.337Z,31.10
2022-08-05T11:03:24.720Z,31.10
2022-08-05T11:06:08.411Z,31.00
2022-08-05T11:09:09.339Z,30.90
2022-08-05T11:11:52.403Z,31.00
2022-08-05T11:14:43.138Z,31.10
2022-08-05T11:17:59.485Z,31.50
2022-08-05T11:20:44.028Z,31.50
2022-08-05T11:24:03.031Z,31.60
2022-08-05T11:26:28.384Z,31.80
2022-08-05T11:29:12.221Z,31.50
2022-08-05T11:31:51.920Z,31.50
2022-08-05T11:34:37.138Z,31.30
2022-08-05T11:37:06.259Z,30.70
2022-08-05T11:40:00.367Z,31.20
2022-08-05T11:42:32.659Z,31.50
2022-08-05T11:45:14.288Z,31.80
2022-08-05T11:47:55.133Z,31.70
2022-08-05T11:50:23.348Z,31.50
2022-08-05T11:52:57.736Z,31.60
2022-08-05T11:55:32.133Z,31.50
2022-08-05T11:58:09.388Z,31.60
2022-08-05T12:00:41.298Z,32.10
2022-08-05T12:03:24.073Z,32.30
2022-08-05T12:06:00.352Z,31.90
2022-08-05T12:08:28.776Z,31.20
2022-08-05T12:11:04.133Z,30.80
2022-08-05T12:13:48.899Z,31.00
2022-08-05T12:16:19.251Z,31.00
2022-08-05T12:18:52.338Z,30.70
2022-08-05T12:21:23.618Z,30.40
2022-08-05T12:23:55.668Z,30.10
2022-08-05T12:26:24.836Z,30.00
2022-08-05T12:28:53.852Z,29.80
2022-08-05T12:31:32.591Z,29.50
2022-08-05T12:34:09.849Z,29.30
2022-08-05T12:36:48.647Z,29.30
2022-08-05T12:39:17.654Z,29.10
2022-08-05T12:41:47.332Z,29.00
2022-08-05T12:44:21.597Z,29.00
2022-08-05T12:47:02.439Z,28.80
2022-08-05T12:50:04.561Z,28.50
2022-08-05T12:52:33.867Z,28.30
2022-08-05T12:55:22.305Z,28.40
2022-08-05T12:58:49.662Z,28.20
2022-08-05T13:01:59.784Z,28.20
2022-08-05T13:03:33.371Z,28.20
2022-08-05T13:06:01.439Z,28.10
2022-08-05T13:08:30.003Z,28.10
2022-08-05T13:11:01.043Z,27.90
2022-08-05T13:14:06.171Z,27.80
2022-08-05T13:16:20.202Z,27.80
2022-08-05T13:18:55.137Z,27.70
2022-08-05T13:21:27.711Z,27.70
2022-08-05T13:23:56.550Z,27.60
2022-08-05T13:26:30.196Z,27.50
2022-08-05T13:28:59.646Z,27.40
2022-08-05T13:31:33.747Z,27.30
2022-08-05T13:34:22.197Z,27.40
2022-08-05T13:36:53.265Z,27.40
2022-08-05T13:40:13.918Z,27.20
2022-08-05T13:42:14.746Z,27.20
2022-08-05T13:44:45.869Z,27.20
2022-08-05T13:47:35.996Z,27.10
2022-08-05T13:50:04.362Z,27.00
2022-08-05T13:52:35.702Z,27.00
2022-08-05T13:55:07.948Z,27.00
2022-08-05T13:57:50.900Z,27.10
2022-08-05T14:00:26.630Z,27.10
2022-08-05T14:02:56.265Z,27.20
2022-08-05T14:05:48.632Z,27.30
2022-08-05T14:08:21.006Z,27.40
2022-08-05T14:11:03.184Z,27.60
2022-08-05T14:13:43.211Z,27.70
2022-08-05T14:16:19.322Z,27.50
2022-08-05T14:18:47.176Z,27.60
2022-08-05T14:22:07.136Z,27.70
2022-08-05T14:24:03.197Z,27.80
2022-08-05T14:26:36.812Z,28.10
2022-08-05T14:29:16.010Z,28.20
2022-08-05T14:32:03.061Z,28.30
2022-08-05T14:34:35.037Z,28.40
2022-08-05T14:37:03.743Z,28.70
2022-08-05T14:39:49.266Z,28.80
2022-08-05T14:42:20.969Z,28.70
2022-08-05T14:44:49.393Z,28.90
2022-08-05T14:47:58.261Z,28.80
2022-08-05T14:50:17.147Z,28.90
2022-08-05T14:52:58.617Z,28.90
2022-08-05T14:55:28.733Z,28.80
2022-08-05T14:58:11.049Z,28.60
2022-08-05T15:00:58.245Z,28.80
2022-08-05T15:03:33.939Z,28.60
2022-08-05T15:06:15.033Z,28.70
2022-08-05T15:08:59.661Z,28.70
2022-08-05T15:11:51.404Z,28.60
2022-08-05T15:14:34.234Z,28.80
2022-08-05T15:17:05.009Z,28.90
2022-08-05T15:19:39.271Z,29.10
2022-08-05T15:22:16.789Z,29.00
2022-08-05T15:24:45.601Z,28.90
2022-08-05T15:27:13.520Z,28.70
2022-08-05T15:29:42.302Z,28.70
2022-08-05T15:32:10.160Z,28.80
2022-08-05T15:34:39.308Z,28.90
2022-08-05T15:37:14.131Z,28.80
2022-08-05T15:41:01.610Z,28.90
2022-08-05T15:42:56.101Z,29.00
2022-08-05T15:45:38.516Z,29.10
2022-08-05T15:48:07.058Z,29.20
2022-08-05T15:50:36.708Z,29.30
2022-08-05T15:53:06.421Z,29.30
2022-08-05T15:56:02.592Z,29.50
2022-08-05T15:58:24.879Z,29.50
2022-08-05T16:01:11.803Z,29.50
2022-08-05T16:03:42.303Z,29.50
2022-08-05T16:06:11.719Z,29.30
2022-08-05T16:08:39.951Z,29.30
2022-08-05T16:11:08.139Z,29.30
2022-08-05T16:13:36.012Z,29.30
2022-08-05T16:16:03.981Z,29.20
2022-08-05T16:18:33.356Z,29.00
2022-08-05T16:21:04.173Z,29.00
2022-08-05T16:23:53.559Z,29.10
2022-08-05T16:26:26.559Z,29.00
2022-08-05T16:28:55.081Z,29.00
2022-08-05T16:31:22.990Z,29.00
2022-08-05T16:33:52.092Z,28.90
2022-08-05T16:36:23.925Z,28.90
2022-08-05T16:38:55.708Z,28.80
2022-08-05T16:42:15.214Z,28.60
2022-08-05T16:44:13.148Z,28.50
2022-08-05T16:46:41.414Z,28.50
2022-08-05T16:49:24.136Z,28.40
2022-08-05T16:51:54.819Z,28.30
2022-08-05T16:54:31.871Z,28.30
2022-08-05T16:57:01.561Z,28.20
2022-08-05T16:59:30.643Z,28.20
2022-08-05T17:01:59.475Z,28.20
2022-08-05T17:04:28.856Z,28.10
2022-08-05T17:07:00.516Z,28.00
2022-08-05T17:09:30.577Z,27.90
2022-08-05T17:12:07.209Z,27.90
2022-08-05T17:14:38.237Z,27.70
2022-08-05T17:17:14.379Z,27.70
2022-08-05T17:19:45.688Z,27.60
2022-08-05T17:22:25.034Z,27.70
2022-08-05T17:24:57.183Z,27.60
2022-08-05T17:27:26.520Z,27.60
2022-08-05T17:30:00.644Z,27.50
2022-08-05T17:32:30.343Z,27.50
2022-08-05T17:35:01.683Z,27.40
2022-08-05T17:37:40.920Z,27.30
2022-08-05T17:40:15.191Z,27.30
2022-08-05T17:42:50.655Z,27.20
2022-08-05T17:45:21.039Z,27.10
2022-08-05T17:47:54.032Z,27.00
2022-08-05T17:50:28.359Z,27.00
2022-08-05T17:53:01.087Z,26.90
2022-08-05T17:55:37.376Z,27.00
2022-08-05T17:58:09.659Z,26.90
2022-08-05T18:00:40.776Z,26.90
2022-08-05T18:03:23.715Z,26.80
2022-08-05T18:06:04.503Z,26.90
2022-08-05T18:08:33.776Z,26.80
2022-08-05T18:11:03.767Z,26.60
2022-08-05T18:13:36.684Z,26.70
2022-08-05T18:16:13.462Z,26.70
2022-08-05T18:18:41.794Z,26.70
2022-08-05T18:21:21.314Z,26.70
2022-08-05T18:23:53.774Z,26.70
2022-08-05T18:26:29.298Z,26.80
2022-08-05T18:28:59.686Z,26.70
2022-08-05T18:31:35.218Z,26.50
2022-08-05T18:34:06.031Z,26.50
2022-08-05T18:36:35.945Z,26.40
2022-08-05T18:39:04.163Z,26.40
2022-08-05T18:41:57.940Z,26.30
2022-08-05T18:44:35.000Z,26.20
2022-08-05T18:47:03.777Z,26.10
2022-08-05T18:49:58.048Z,25.60
2022-08-05T18:52:37.947Z,25.20
2022-08-05T18:55:10.716Z,24.60
2022-08-05T18:57:50.062Z,24.50
2022-08-05T19:00:29.193Z,24.50
2022-08-05T19:03:03.254Z,24.40
2022-08-05T19:06:12.267Z,24.40
2022-08-05T19:08:21.677Z,24.50
2022-08-05T19:10:49.686Z,24.40
2022-08-05T19:13:19.840Z,24.40
2022-08-05T19:16:00.257Z,24.10
2022-08-05T19:18:31.484Z,24.10
2022-08-05T19:20:59.632Z,23.80
2022-08-05T19:24:07.534Z,24.00
2022-08-05T19:26:17.176Z,23.70
2022-08-05T19:28:46.331Z,23.80
2022-08-05T19:31:17.919Z,23.50
2022-08-05T19:33:48.350Z,23.40
2022-08-05T19:36:23.991Z,23.10
2022-08-05T19:38:52.305Z,23.30
2022-08-05T19:41:22.154Z,23.20
2022-08-05T19:44:13.244Z,22.70
2022-08-05T19:46:43.685Z,22.70
2022-08-05T19:49:12.591Z,22.90
2022-08-05T19:52:06.120Z,23.00
2022-08-05T19:54:34.224Z,22.60
2022-08-05T19:57:02.697Z,22.30
2022-08-05T20:00:00.500Z,22.20
2022-08-05T20:02:27.097Z,21.90
2022-08-05T20:04:55.443Z,21.70
2022-08-05T20:07:46.591Z,21.70
2022-08-05T20:10:14.906Z,21.60
2022-08-05T20:12:46.090Z,21.80
2022-08-05T20:15:48.589Z,21.60
2022-08-05T20:18:10.304Z,21.80
2022-08-05T20:20:56.076Z,21.80
2022-08-05T20:23:39.988Z,21.80
2022-08-05T20:26:15.184Z,22.00
2022-08-05T20:28:44.884Z,22.10
2022-08-05T20:31:14.031Z,22.20
2022-08-05T20:33:45.132Z,22.20
2022-08-05T20:36:14.300Z,22.30
2022-08-05T20:38:53.325Z,22.30
2022-08-05T20:41:24.084Z,22.30
2022-08-05T20:44:00.011Z,22.20
2022-08-05T20:46:32.964Z,22.20
2022-08-05T20:49:00.817Z,22.10
2022-08-05T20:51:30.450Z,22.00
2022-08-05T20:54:01.107Z,21.90
2022-08-05T20:56:34.062Z,21.90
2022-08-05T20:59:14.309Z,21.90
2022-08-05T21:01:51.583Z,22.00
2022-08-05T21:04:19.438Z,22.20
2022-08-05T21:06:47.604Z,22.20
2022-08-05T21:09:15.905Z,22.20
2022-08-05T21:12:10.832Z,22.10
2022-08-05T21:14:35.344Z,22.00
2022-08-05T21:17:05.363Z,22.00
2022-08-05T21:19:46.694Z,22.00
2022-08-05T21:22:18.414Z,21.80
2022-08-05T21:24:51.620Z,21.70
2022-08-05T21:27:20.682Z,21.60
2022-08-05T21:29:54.214Z,21.60
2022-08-05T21:32:26.912Z,21.60
2022-08-05T21:35:06.759Z,21.30
2022-08-05T21:37:43.713Z,21.30
2022-08-05T21:40:16.621Z,21.10
2022-08-05T21:42:46.784Z,20.80
2022-08-05T21:45:24.941Z,20.80
2022-08-05T21:48:06.479Z,20.70
2022-08-05T21:50:36.697Z,20.60
2022-08-05T21:53:16.205Z,20.50
2022-08-05T21:56:01.023Z,20.30
2022-08-05T21:58:32.581Z,20.20
2022-08-05T22:01:00.775Z,20.20
2022-08-05T22:03:48.575Z,20.20
2022-08-05T22:06:22.923Z,20.20
2022-08-05T22:09:01.306Z,20.10
2022-08-05T22:11:41.400Z,20.20
2022-08-05T22:14:33.247Z,20.40
2022-08-05T22:17:03.954Z,20.50
2022-08-05T22:20:03.575Z,20.50
2022-08-05T22:22:27.769Z,20.50
2022-08-05T22:25:17.724Z,20.20
2022-08-05T22:28:09.336Z,20.40
2022-08-05T22:30:55.359Z,20.50
2022-08-05T22:33:56.571Z,20.40
2022-08-05T22:36:15.178Z,20.40
2022-08-05T22:38:48.688Z,20.40
2022-08-05T22:42:04.834Z,20.40
2022-08-05T22:44:05.792Z,20.50
2022-08-05T22:46:33.638Z,20.70
2022-08-05T22:49:07.829Z,20.60
2022-08-05T22:52:05.130Z,20.70
2022-08-05T22:54:29.653Z,20.90
2022-08-05T22:56:57.515Z,20.80
2022-08-05T22:59:46.265Z,20.60
2022-08-05T23:02:13.793Z,20.60
2022-08-05T23:04:51.142Z,20.60
2022-08-05T23:07:22.333Z,20.60
2022-08-05T23:09:53.490Z,20.70
2022-08-05T23:12:28.912Z,20.80
2022-08-05T23:15:00.103Z,20.70
2022-08-05T23:17:34.329Z,20.60
2022-08-05T23:20:16.313Z,20.60
2022-08-05T23:22:47.095Z,20.60
2022-08-05T23:25:16.994Z,20.50
2022-08-05T23:28:00.149Z,20.40
2022-08-05T23:30:29.112Z,20.40
2022-08-05T23:32:59.073Z,20.30
2022-08-05T23:35:28.560Z,20.10
2022-08-05T23:38:03.485Z,20.10
2022-08-05T23:40:32.327Z,20.10
2022-08-05T23:43:02.211Z,20.10
2022-08-05T23:45:50.075Z,20.10
2022-08-05T23:48:19.729Z,20.00
2022-08-05T23:50:47.616Z,19.90
2022-08-05T23:53:22.419Z,19.90
2022-08-05T23:55:50.909Z,19.90
2022-08-05T23:58:31.971Z,19.70
